Terminal Aerodrome Forecast
Issued by NWS

Home | Current Version | Previous Version | Text Only | Print | Product List | Glossary On
Versions: 1 2 3 4 5 6 7 8 9 10 11 12 13 14 15 16 17 18 19 20 21 22 23
000
FTUS46 KPDT 102342
TAFYKM
TAF
KYKM 102342Z 1100/1124 VRB03KT P6SM BKN010
      TEMPO 1100/1102 5SM BR SCT002 BKN006
     FM110200 19004KT 2SM BR OVC002
     FM110400 00000KT 1/4SM FZFG VV002
     FM111200 25004KT 1/2SM FZFG OVC004
     FM111700 16003KT 1SM BR VCSH OVC005=

USA.gov is the U.S. government's official web portal to all federal, state and local government web resources and services.